Flight Track Log - Related Links

Times and Time Zones

All times are in EST time to prevent confusion due to time zone crossing. See the N225BJ flight status page for this flight to view local times or setup timezone preferences in your user account.

Time Position Orientation Groundspeed Altitude Reporting Facility
EST Latitude Longitude Course Direction KTS MPH feet Rate Location/Type
Sun 02:43:04 PM 33.8167 -84.7000 256° West 243 280 6,000  Level Atlanta TRACON
Sun 02:44:04 PM 33.8000 -84.7833 256° West 247 284 8,500 2,350 Climbing Atlanta TRACON
Sun 02:45:04 PM 33.7667 -84.8667 244° Southwest 291 335 10,700 2,291 Climbing Atlanta TRACON
Sun 02:45:54 PM 33.7411 -84.9256 242° Southwest 292 336 12,700 2,182 Climbing Atlanta Center
Sun 02:46:54 PM 33.7172 -85.0153 262° West 292 336 14,700 2,250 Climbing Atlanta Center
Sun 02:47:54 PM 33.7375 -85.1131 284° West 292 336 17,200 2,200 Climbing Atlanta Center
Sun 02:48:54 PM 33.7533 -85.2031 282° West 292 336 19,100 2,150 Climbing Atlanta Center
Sun 02:49:54 PM 33.7692 -85.2958 282° West 292 336 21,500 2,350 Climbing Atlanta Center
Sun 02:50:54 PM 33.7825 -85.3983 279° West 292 336 23,800 2,450 Climbing Atlanta Center
Sun 02:51:54 PM 33.7961 -85.4861 281° West 283 326 26,400 2,200 Climbing Atlanta Center
Sun 02:52:54 PM 33.8119 -85.5714 283° West 268 308 28,200 1,650 Climbing Atlanta Center
Sun 02:53:54 PM 33.8253 -85.6567 281° West 268 308 29,700 1,200 Climbing Atlanta Center
Sun 02:54:54 PM 33.8389 -85.7419 281° West 263 303 30,600 850 Climbing Atlanta Center
Sun 02:55:54 PM 33.8483 -85.8172 279° West 263 303 31,400 1,200 Climbing Atlanta Center
Sun 02:56:54 PM 33.8594 -85.9025 279° West 258 297 33,000 1,600 Climbing Atlanta Center
Sun 02:57:54 PM 33.8750 -85.9828 283° West 258 297 34,600 1,150 Climbing Atlanta Center
Sun 02:58:54 PM 33.8864 -86.0583 280° West 247 284 35,300 700 Climbing Atlanta Center
Sun 02:59:54 PM 33.8975 -86.1361 280° West 242 278 36,000 350 Climbing Atlanta Center
Sun 03:00:54 PM 33.9128 -86.2214 282° West 242 278 36,000  Level Atlanta Center
Sun 03:01:54 PM 33.9236 -86.3094 278° West 254 292 36,000  Level Atlanta Center
Sun 03:02:54 PM 33.9364 -86.4025 279° West 272 313 36,000  Level Atlanta Center
Sun 03:03:54 PM 33.9533 -86.4981 282° West 283 326 36,000  Level Atlanta Center
Sun 03:04:54 PM 33.9681 -86.5936 281° West 289 333 36,000  Level Atlanta Center
Sun 03:05:54 PM 33.9828 -86.6917 280° West 295 339 36,000  Level Atlanta Center
Sun 03:06:54 PM 33.9953 -86.7900 279° West 295 339 36,000  Level Atlanta Center
Sun 03:09:17 PM 34.0311 -87.0250 280° West 296 341 36,000  Level Memphis Center
Sun 03:10:19 PM 34.0456 -87.1217 280° West 294 338 36,000  Level Memphis Center
Sun 03:11:21 PM 34.0594 -87.2175 280° West 292 336 36,000  Level Memphis Center
Sun 03:12:23 PM 34.0742 -87.3192 280° West 291 335 36,000  Level Memphis Center
Sun 03:13:25 PM 34.0886 -87.4164 280° West 292 336 36,000  Level Memphis Center
Sun 03:14:27 PM 34.1036 -87.5300 279° West 292 336 36,000  Level Memphis Center
Sun 03:15:29 PM 34.1189 -87.6281 281° West 294 338 36,000  Level Memphis Center
Sun 03:16:31 PM 34.1317 -87.7258 279° West 293 337 36,000  Level Memphis Center
Sun 03:17:33 PM 34.1461 -87.8228 280° West 292 336 36,000  Level Memphis Center
Sun 03:18:35 PM 34.1594 -87.9167 280° West 292 336 36,000  Level Memphis Center
Sun 03:19:38 PM 34.1725 -88.0131 279° West 290 334 36,000  Level Memphis Center
Sun 03:20:40 PM 34.1883 -88.1281 279° West 290 334 36,000  Level Memphis Center
Sun 03:21:42 PM 34.2014 -88.2242 279° West 290 334 36,000  Level Memphis Center
Sun 03:22:44 PM 34.2158 -88.3200 280° West 290 334 36,000  Level Memphis Center
Sun 03:23:46 PM 34.2267 -88.4164 278° West 290 334 36,000  Level Memphis Center
Sun 03:24:48 PM 34.2414 -88.5122 281° West 290 334 36,000  Level Memphis Center
Sun 03:25:50 PM 34.2539 -88.6075 279° West 288 331 36,000  Level Memphis Center
Sun 03:26:52 PM 34.2686 -88.7214 279° West 287 330 36,000  Level Memphis Center
Sun 03:27:54 PM 34.2828 -88.8161 280° West 287 330 36,000  Level Memphis Center
Sun 03:28:56 PM 34.2928 -88.9019 278° West 286 329 36,000  Level Memphis Center
Sun 03:29:58 PM 34.3072 -89.0139 279° West 286 329 36,000  Level Memphis Center
Sun 03:31:00 PM 34.3197 -89.1089 279° West 285 328 36,000  Level Memphis Center
Sun 03:32:02 PM 34.3325 -89.2042 279° West 285 328 36,000  Level Memphis Center
Sun 03:33:04 PM 34.3450 -89.2994 279° West 284 327 36,000  Level Memphis Center
Sun 03:34:06 PM 34.3564 -89.3947 278° West 283 326 36,000  Level Memphis Center
Sun 03:35:08 PM 34.3683 -89.4900 279° West 284 327 36,000  Level Memphis Center
Sun 03:36:10 PM 34.3806 -89.5844 279° West 282 325 36,000  Level Memphis Center
Sun 03:37:12 PM 34.3925 -89.6806 279° West 283 326 36,000  Level Memphis Center
Sun 03:38:15 PM 34.4064 -89.7914 279° West 283 326 36,000  Level Memphis Center
Sun 03:39:17 PM 34.4178 -89.8867 278° West 282 325 36,000  Level Memphis Center
Sun 03:40:19 PM 34.4297 -89.9814 279° West 281 323 36,000  Level Memphis Center
Sun 03:41:21 PM 34.4408 -90.0756 278° West 280 322 36,000  Level Memphis Center
Sun 03:42:23 PM 34.4528 -90.1703 279° West 280 322 36,000  Level Memphis Center
Sun 03:43:25 PM 34.4642 -90.2658 278° West 282 325 36,000  Level Memphis Center
Sun 03:44:27 PM 34.4756 -90.3608 278° West 282 325 36,000  Level Memphis Center
Sun 03:45:29 PM 34.4944 -90.4531 284° West 281 323 36,000 -1,016 Level Memphis Center
Sun 03:46:31 PM 34.5425 -90.5500 301° West 284 327 33,900 -2,274 Descending Memphis Center
Sun 03:47:33 PM 34.5653 -90.6356 288° West 284 327 31,300 -2,855 Descending Memphis Center
Sun 03:48:35 PM 34.5650 -90.7311 270° West 279 321 28,000 -3,339 Descending Memphis Center
Sun 03:49:37 PM 34.5636 -90.8281 269° West 283 326 24,400 -4,016 Descending Memphis Center
Sun 03:50:39 PM 34.5758 -90.9322 278° West 304 350 19,700 -4,210 Descending Memphis Center
Sun 03:51:41 PM 34.5978 -91.0375 284° West 319 367 15,700 -3,487 Descending Memphis Center
Sun 03:52:36 PM 34.6181 -91.1364 284° West 300 345 12,900 -2,710 Descending Memphis Center
Sun 03:52:43 PM 34.6192 -91.1378 314° West 308 354 12,900 -2,291 Level Memphis Center
Sun 03:53:31 PM 34.6350 -91.2211 283° West 267 307 10,800 -2,129 Descending Memphis Center
Sun 03:53:45 PM 34.6381 -91.2269 302° West 279 321 10,700 -2,656 Descending Memphis Center
Sun 03:54:32 PM 34.6456 -91.3064 277° West 259 298 8,100 -3,238 Descending Memphis Center
Sun 03:54:48 PM 34.6486 -91.3311 279° West 266 306 7,300 -2,111 Descending Memphis Center
Sun 03:55:26 PM 34.6539 -91.3842 277° West 263 303 6,200 -1,258 Descending Memphis Center
Sun 03:55:50 PM 34.6600 -91.4169 283° West 259 298 6,000 -911 Descending Memphis Center
Sun 03:56:45 PM 34.6733 -91.4839 284° West 214 246 5,000 -968 Descending Memphis Center
Sun 03:56:52 PM 34.6753 -91.4878 301° West 223 257 5,000 98 Level Memphis Center
Sun 03:57:46 PM 34.6872 -91.5511 283° West 209 241 5,100  Climbing Memphis Center
Sun 03:58:46 PM 34.7006 -91.6161 284° West 187 215 5,000 -86 Descending Memphis Center
Sun 03:58:56 PM 34.7019 -91.6175 321° Northwest 196 226 5,000  Level Memphis Center
Sun 03:59:53 PM 34.7144 -91.6833 283° West 179 206 5,000  Level Memphis Center
Sun 03:59:58 PM 34.7136 -91.6772 99° East 187 215 5,000 -197 Level Memphis Center
Sun 04:00:54 PM 34.7231 -91.7333 282° West 156 180 4,800 -194 Descending Memphis Center
Sun 04:01:00 PM 34.7244 -91.7408 283° West 172 198 4,800 111 Level Memphis Center
Sun 04:01:48 PM 34.7336 -91.7783 287° West 141 162 4,900 97 Climbing Memphis Center
Sun 04:02:02 PM 34.7358 -91.7864 289° West 154 177 4,900 -197 Level Memphis Center
Sun 04:02:49 PM 34.7422 -91.8308 280° West 162 186 4,700 -505 Descending Memphis Center
Sun 04:03:49 PM 34.7511 -91.8911 280° West 180 207 4,000 -623 Descending Memphis Center
Sun 04:04:06 PM 34.7553 -91.9006 298° West 169 194 3,900 -492 Descending Memphis Center
Sun 04:04:50 PM 34.7642 -91.9458 283° West 171 197 3,500 -581 Descending Memphis Center
Sun 04:05:08 PM 34.7667 -91.9564 286° West 171 197 3,300 -982 Descending Memphis Center
Sun 04:05:45 PM 34.7747 -91.9958 284° West 163 188 2,600 -968 Descending Memphis Center
Sun 04:06:10 PM 34.7769 -92.0092 281° West 168 193 2,300 -667 Descending Memphis Center
Sun 04:06:39 PM 34.7811 -92.0411 279° West 153 176 2,000 -581 Descending Memphis Center
Sun 04:07:12 PM 34.7861 -92.0703 282° West 158 182 1,700 -393 Descending Memphis Center
Sun 04:07:40 PM 34.7856 -92.0964 269° West 154 177 1,600 -290 Descending Memphis Center
Sun 04:08:14 PM 34.7853 -92.1217 269° West 156 180 1,400 -400 Descending Memphis Center
Sun 04:08:40 PM 34.7772 -92.1425 245° Southwest 147 169 1,200 -387 Descending Memphis Center
Sun 04:09:16 PM 34.7653 -92.1689 241° Southwest 154 177 1,000 -492 Descending Memphis Center
Sun 04:09:41 PM 34.7536 -92.1794 217° Southwest 127 146 700 -720 Descending Memphis Center
Sun 04:11:00 PM 34.7167 -92.2167 270° West  Level FlightAware Approximate

Login

Don't have an account? Register now (free) for customized features, flight alerts, and more!